עמוד ראשי
METAR-TAF:

METAR-TAF

שדות תעופה :

Juliaca, פרו

קו רוחב: 15-29S, קו אורך: 070-09W, גובה: 3826מטר

תצפית מזג אוויר נוכחית

הדו"ח נערך לפני 35דקות, בשעה 00:00 UTC
רוח רגועה
טמפרטורת 14 צלסיוס
לחות 31%
לחץ 1034 hPa
ראות 10 קילומטר או יותר
מעט עננים בגובה 2500רגל
עננים פזורים בגובה 10000רגל

METAR: SPJL 210000Z 00000KT 9999 FEW025 SCT100 14/M03 Q1034 RMK PP000

זמן: 19:35 (00:35 UTC)

תחזית

הדו"ח נערך לפני 3 שעות ו 36דקות, בשעה 20:59 UTC
תחזית בתוקף מ 20 ב 18 UTC עד 21 ב 18 UTC
רוח 5קשר מכיוון מערב
ראות 10 קילומטר או יותר
ללא עננים שבסיסם נמוך מ 5000 רגל או קומולונימבוס
מ 20 ב 2100UTC
רוח 7קשר מכיוון דרום-מערב
ראות 10 קילומטר או יותר
עננים פזורים בגובה 2500רגל , קומולוס מיגדלי.
מ 21 ב 1300UTC
רוח 3קשר מכיוון צפון-מערב
ראות 10 קילומטר או יותר
ללא עננים שבסיסם נמוך מ 5000 רגל או קומולונימבוס

TAF: SPJL 202059Z 2018/2118 26005KT CAVOK TX21/2118Z TNM03/2111Z FM202100 23007KT 9999 SCT025TCU FM211300 32003KT CAVOK

תצפיות ותחזיות מזג אוויר לגבי יותר מ- 4,000 שדות תעופה ברחבי העולם. דוחות METAR ו- TAF.

התחנות הזמינות מסומנות בנקודות צהובות ואדומות על גבי המפה.

העבר את העכבר לנקודה הצבעונית על מנת לראות את שם התחנה.

לאחר מכן, לחץ כדי לראות את תוכן ואת תחזיות מזג האוויר.

כדי לשנות את המפה: לחץ על הכפתורים הירוקים עם הפלוס השחור כדי להתקרב; על הכפתור הירוק עם המקף כדי להתרחק; או בחיצים הירוקים למפות סמוכות.


METAR-TAF: